sensor_id;sensor_type;location;lat;lon;timestamp;P1;durP1;ratioP1;P2;durP2;ratioP2
10315;SDS011;5203;48.976;8.306;2023-05-16T00:02:01;15.48;;;14.20;;
10315;SDS011;5203;48.976;8.306;2023-05-16T00:04:27;14.83;;;13.47;;
10315;SDS011;5203;48.976;8.306;2023-05-16T00:06:53;15.15;;;13.90;;
10315;SDS011;5203;48.976;8.306;2023-05-16T00:09:18;15.40;;;14.20;;
10315;SDS011;5203;48.976;8.306;2023-05-16T00:11:44;14.75;;;13.45;;
10315;SDS011;5203;48.976;8.306;2023-05-16T00:14:12;14.98;;;13.85;;
10315;SDS011;5203;48.976;8.306;2023-05-16T00:16:38;15.83;;;14.13;;
10315;SDS011;5203;48.976;8.306;2023-05-16T00:22:27;15.33;;;14.20;;
10315;SDS011;5203;48.976;8.306;2023-05-16T00:24:53;15.52;;;14.18;;
10315;SDS011;5203;48.976;8.306;2023-05-16T00:27:19;15.97;;;14.07;;
10315;SDS011;5203;48.976;8.306;2023-05-16T00:29:45;13.90;;;12.70;;
10315;SDS011;5203;48.976;8.306;2023-05-16T00:32:11;14.52;;;13.35;;
10315;SDS011;5203;48.976;8.306;2023-05-16T00:34:36;14.75;;;13.65;;
10315;SDS011;5203;48.976;8.306;2023-05-16T00:37:02;14.38;;;13.32;;
10315;SDS011;5203;48.976;8.306;2023-05-16T00:39:28;16.00;;;14.70;;
10315;SDS011;5203;48.976;8.306;2023-05-16T00:41:54;15.98;;;14.57;;
10315;SDS011;5203;48.976;8.306;2023-05-16T00:44:21;13.63;;;12.63;;
10315;SDS011;5203;48.976;8.306;2023-05-16T00:46:47;14.02;;;13.02;;
10315;SDS011;5203;48.976;8.306;2023-05-16T00:49:12;15.40;;;14.00;;
10315;SDS011;5203;48.976;8.306;2023-05-16T00:51:38;14.07;;;13.07;;
10315;SDS011;5203;48.976;8.306;2023-05-16T00:54:04;14.20;;;13.10;;
10315;SDS011;5203;48.976;8.306;2023-05-16T00:56:30;13.48;;;12.55;;
10315;SDS011;5203;48.976;8.306;2023-05-16T00:58:57;14.40;;;13.30;;
10315;SDS011;5203;48.976;8.306;2023-05-16T01:01:24;15.30;;;14.20;;
10315;SDS011;5203;48.976;8.306;2023-05-16T01:03:51;15.10;;;14.00;;
10315;SDS011;5203;48.976;8.306;2023-05-16T01:06:17;14.65;;;13.57;;
10315;SDS011;5203;48.976;8.306;2023-05-16T01:08:43;15.63;;;14.52;;
10315;SDS011;5203;48.976;8.306;2023-05-16T01:11:25;15.75;;;14.35;;
10315;SDS011;5203;48.976;8.306;2023-05-16T01:16:37;16.88;;;15.35;;
10315;SDS011;5203;48.976;8.306;2023-05-16T01:22:19;15.30;;;14.00;;
10315;SDS011;5203;48.976;8.306;2023-05-16T01:27:44;15.10;;;14.00;;
10315;SDS011;5203;48.976;8.306;2023-05-16T01:30:14;15.83;;;14.73;;
10315;SDS011;5203;48.976;8.306;2023-05-16T01:32:41;15.70;;;14.37;;
10315;SDS011;5203;48.976;8.306;2023-05-16T01:35:07;15.68;;;14.38;;
10315;SDS011;5203;48.976;8.306;2023-05-16T01:37:36;16.77;;;15.40;;
10315;SDS011;5203;48.976;8.306;2023-05-16T01:40:17;17.50;;;16.03;;
10315;SDS011;5203;48.976;8.306;2023-05-16T01:42:45;17.43;;;15.93;;
10315;SDS011;5203;48.976;8.306;2023-05-16T01:45:33;16.77;;;15.20;;
10315;SDS011;5203;48.976;8.306;2023-05-16T01:48:06;15.67;;;14.33;;
10315;SDS011;5203;48.976;8.306;2023-05-16T01:50:38;16.63;;;15.13;;
10315;SDS011;5203;48.976;8.306;2023-05-16T01:53:11;16.13;;;14.93;;
10315;SDS011;5203;48.976;8.306;2023-05-16T01:55:46;18.00;;;16.40;;
10315;SDS011;5203;48.976;8.306;2023-05-16T01:58:16;16.70;;;15.23;;
10315;SDS011;5203;48.976;8.306;2023-05-16T02:00:45;16.33;;;15.03;;
10315;SDS011;5203;48.976;8.306;2023-05-16T02:03:11;16.67;;;15.47;;
10315;SDS011;5203;48.976;8.306;2023-05-16T02:05:37;17.40;;;15.73;;
10315;SDS011;5203;48.976;8.306;2023-05-16T02:08:03;16.93;;;15.63;;
10315;SDS011;5203;48.976;8.306;2023-05-16T02:10:29;16.97;;;15.53;;
10315;SDS011;5203;48.976;8.306;2023-05-16T02:12:55;17.80;;;16.40;;
10315;SDS011;5203;48.976;8.306;2023-05-16T02:15:21;19.20;;;17.53;;
10315;SDS011;5203;48.976;8.306;2023-05-16T02:17:46;17.77;;;16.27;;
10315;SDS011;5203;48.976;8.306;2023-05-16T02:20:12;18.47;;;16.87;;
10315;SDS011;5203;48.976;8.306;2023-05-16T02:22:38;20.17;;;18.50;;
10315;SDS011;5203;48.976;8.306;2023-05-16T02:25:04;21.30;;;19.33;;
10315;SDS011;5203;48.976;8.306;2023-05-16T02:27:30;21.13;;;19.33;;
10315;SDS011;5203;48.976;8.306;2023-05-16T02:29:56;21.40;;;19.40;;
10315;SDS011;5203;48.976;8.306;2023-05-16T02:32:22;23.27;;;21.03;;
10315;SDS011;5203;48.976;8.306;2023-05-16T02:34:48;23.47;;;21.53;;
10315;SDS011;5203;48.976;8.306;2023-05-16T02:37:13;23.73;;;21.70;;
10315;SDS011;5203;48.976;8.306;2023-05-16T02:39:39;20.63;;;18.63;;
10315;SDS011;5203;48.976;8.306;2023-05-16T02:42:05;19.60;;;17.90;;
10315;SDS011;5203;48.976;8.306;2023-05-16T02:44:31;21.10;;;19.33;;
10315;SDS011;5203;48.976;8.306;2023-05-16T02:46:57;23.27;;;21.23;;
10315;SDS011;5203;48.976;8.306;2023-05-16T02:49:22;18.70;;;17.20;;
10315;SDS011;5203;48.976;8.306;2023-05-16T02:51:48;21.80;;;19.90;;
10315;SDS011;5203;48.976;8.306;2023-05-16T02:54:14;20.00;;;18.17;;
10315;SDS011;5203;48.976;8.306;2023-05-16T02:56:40;22.53;;;20.53;;
10315;SDS011;5203;48.976;8.306;2023-05-16T02:59:05;23.97;;;21.77;;
10315;SDS011;5203;48.976;8.306;2023-05-16T03:01:31;21.03;;;19.13;;
10315;SDS011;5203;48.976;8.306;2023-05-16T03:03:57;23.30;;;20.93;;
10315;SDS011;5203;48.976;8.306;2023-05-16T03:06:23;21.10;;;19.33;;
10315;SDS011;5203;48.976;8.306;2023-05-16T03:08:49;23.17;;;20.87;;
10315;SDS011;5203;48.976;8.306;2023-05-16T03:11:15;22.57;;;20.60;;
10315;SDS011;5203;48.976;8.306;2023-05-16T03:13:44;24.90;;;22.47;;
10315;SDS011;5203;48.976;8.306;2023-05-16T03:16:10;25.27;;;22.97;;
10315;SDS011;5203;48.976;8.306;2023-05-16T03:18:36;24.27;;;22.17;;
10315;SDS011;5203;48.976;8.306;2023-05-16T03:21:01;26.17;;;23.73;;
10315;SDS011;5203;48.976;8.306;2023-05-16T03:23:27;25.50;;;22.80;;
10315;SDS011;5203;48.976;8.306;2023-05-16T03:25:52;25.57;;;23.33;;
10315;SDS011;5203;48.976;8.306;2023-05-16T03:28:18;25.83;;;23.43;;
10315;SDS011;5203;48.976;8.306;2023-05-16T03:30:44;24.93;;;22.73;;
10315;SDS011;5203;48.976;8.306;2023-05-16T03:33:10;24.97;;;22.77;;
10315;SDS011;5203;48.976;8.306;2023-05-16T03:35:35;25.30;;;23.00;;
10315;SDS011;5203;48.976;8.306;2023-05-16T03:38:01;26.00;;;23.60;;
10315;SDS011;5203;48.976;8.306;2023-05-16T03:40:27;27.47;;;24.83;;
10315;SDS011;5203;48.976;8.306;2023-05-16T03:42:53;25.27;;;22.97;;
10315;SDS011;5203;48.976;8.306;2023-05-16T03:45:19;24.20;;;22.00;;
10315;SDS011;5203;48.976;8.306;2023-05-16T03:47:44;25.57;;;23.10;;
10315;SDS011;5203;48.976;8.306;2023-05-16T03:50:10;27.37;;;24.87;;
10315;SDS011;5203;48.976;8.306;2023-05-16T03:52:36;24.43;;;22.13;;
10315;SDS011;5203;48.976;8.306;2023-05-16T03:55:02;25.20;;;22.80;;
10315;SDS011;5203;48.976;8.306;2023-05-16T03:57:29;26.27;;;23.87;;
10315;SDS011;5203;48.976;8.306;2023-05-16T03:59:56;26.77;;;23.27;;
10315;SDS011;5203;48.976;8.306;2023-05-16T04:02:22;25.70;;;23.07;;
10315;SDS011;5203;48.976;8.306;2023-05-16T04:04:47;25.97;;;23.47;;
10315;SDS011;5203;48.976;8.306;2023-05-16T04:07:13;24.43;;;22.17;;
10315;SDS011;5203;48.976;8.306;2023-05-16T04:09:39;25.33;;;23.00;;
10315;SDS011;5203;48.976;8.306;2023-05-16T04:12:05;23.77;;;21.43;;
10315;SDS011;5203;48.976;8.306;2023-05-16T04:14:31;24.27;;;22.07;;
10315;SDS011;5203;48.976;8.306;2023-05-16T04:16:58;23.53;;;21.27;;
10315;SDS011;5203;48.976;8.306;2023-05-16T04:19:24;23.27;;;21.07;;
10315;SDS011;5203;48.976;8.306;2023-05-16T04:21:50;23.63;;;21.43;;
10315;SDS011;5203;48.976;8.306;2023-05-16T04:24:16;23.30;;;21.10;;
10315;SDS011;5203;48.976;8.306;2023-05-16T04:26:42;23.93;;;21.73;;
10315;SDS011;5203;48.976;8.306;2023-05-16T04:29:07;24.13;;;21.87;;
10315;SDS011;5203;48.976;8.306;2023-05-16T04:31:33;23.33;;;21.13;;
10315;SDS011;5203;48.976;8.306;2023-05-16T04:33:59;23.90;;;21.63;;
10315;SDS011;5203;48.976;8.306;2023-05-16T04:36:25;21.73;;;19.83;;
10315;SDS011;5203;48.976;8.306;2023-05-16T04:38:54;22.40;;;20.30;;
10315;SDS011;5203;48.976;8.306;2023-05-16T04:41:20;21.30;;;19.40;;
10315;SDS011;5203;48.976;8.306;2023-05-16T04:43:46;22.23;;;20.03;;
10315;SDS011;5203;48.976;8.306;2023-05-16T04:46:12;21.93;;;19.93;;
10315;SDS011;5203;48.976;8.306;2023-05-16T04:48:39;22.33;;;20.20;;
10315;SDS011;5203;48.976;8.306;2023-05-16T04:51:05;22.50;;;20.27;;
10315;SDS011;5203;48.976;8.306;2023-05-16T04:53:31;20.80;;;18.80;;
10315;SDS011;5203;48.976;8.306;2023-05-16T04:55:57;20.67;;;18.67;;
10315;SDS011;5203;48.976;8.306;2023-05-16T04:58:22;21.33;;;19.03;;
10315;SDS011;5203;48.976;8.306;2023-05-16T05:00:49;21.97;;;19.70;;
10315;SDS011;5203;48.976;8.306;2023-05-16T05:03:16;21.93;;;19.97;;
10315;SDS011;5203;48.976;8.306;2023-05-16T05:05:41;21.63;;;19.40;;
10315;SDS011;5203;48.976;8.306;2023-05-16T05:08:07;21.30;;;19.13;;
10315;SDS011;5203;48.976;8.306;2023-05-16T05:10:34;20.20;;;18.40;;
10315;SDS011;5203;48.976;8.306;2023-05-16T05:13:00;20.27;;;18.47;;
10315;SDS011;5203;48.976;8.306;2023-05-16T05:15:26;20.87;;;18.63;;
10315;SDS011;5203;48.976;8.306;2023-05-16T05:17:51;21.87;;;19.60;;
10315;SDS011;5203;48.976;8.306;2023-05-16T05:20:17;19.47;;;17.53;;
10315;SDS011;5203;48.976;8.306;2023-05-16T05:22:43;157.97;;;53.60;;
10315;SDS011;5203;48.976;8.306;2023-05-16T05:25:09;23.83;;;19.80;;
10315;SDS011;5203;48.976;8.306;2023-05-16T05:27:34;23.50;;;21.00;;
10315;SDS011;5203;48.976;8.306;2023-05-16T05:30:00;20.87;;;18.73;;
10315;SDS011;5203;48.976;8.306;2023-05-16T05:32:26;25.47;;;21.87;;
10315;SDS011;5203;48.976;8.306;2023-05-16T05:34:52;20.00;;;17.97;;
10315;SDS011;5203;48.976;8.306;2023-05-16T05:37:17;21.60;;;18.57;;
10315;SDS011;5203;48.976;8.306;2023-05-16T05:39:43;28.73;;;25.50;;
10315;SDS011;5203;48.976;8.306;2023-05-16T05:42:09;23.00;;;20.93;;
10315;SDS011;5203;48.976;8.306;2023-05-16T05:44:35;20.47;;;18.27;;
10315;SDS011;5203;48.976;8.306;2023-05-16T05:47:01;24.47;;;22.30;;
10315;SDS011;5203;48.976;8.306;2023-05-16T05:49:28;21.60;;;19.30;;
10315;SDS011;5203;48.976;8.306;2023-05-16T05:51:55;19.47;;;17.43;;
10315;SDS011;5203;48.976;8.306;2023-05-16T05:54:21;20.13;;;17.07;;
10315;SDS011;5203;48.976;8.306;2023-05-16T05:56:47;20.13;;;18.00;;
10315;SDS011;5203;48.976;8.306;2023-05-16T05:59:13;20.50;;;18.40;;
10315;SDS011;5203;48.976;8.306;2023-05-16T06:01:39;19.17;;;17.00;;
10315;SDS011;5203;48.976;8.306;2023-05-16T06:04:05;19.80;;;17.60;;
10315;SDS011;5203;48.976;8.306;2023-05-16T06:06:30;18.63;;;16.73;;
10315;SDS011;5203;48.976;8.306;2023-05-16T06:08:57;18.80;;;16.90;;
10315;SDS011;5203;48.976;8.306;2023-05-16T06:11:22;20.13;;;17.23;;
10315;SDS011;5203;48.976;8.306;2023-05-16T06:13:49;17.97;;;16.17;;
10315;SDS011;5203;48.976;8.306;2023-05-16T06:16:15;18.50;;;16.57;;
10315;SDS011;5203;48.976;8.306;2023-05-16T06:18:41;16.80;;;15.00;;
10315;SDS011;5203;48.976;8.306;2023-05-16T06:21:07;16.90;;;15.20;;
10315;SDS011;5203;48.976;8.306;2023-05-16T06:23:33;16.40;;;14.60;;
10315;SDS011;5203;48.976;8.306;2023-05-16T06:26:03;17.07;;;15.27;;
10315;SDS011;5203;48.976;8.306;2023-05-16T06:28:28;16.40;;;14.77;;
10315;SDS011;5203;48.976;8.306;2023-05-16T06:30:54;14.47;;;12.93;;
10315;SDS011;5203;48.976;8.306;2023-05-16T06:33:19;16.20;;;13.00;;
10315;SDS011;5203;48.976;8.306;2023-05-16T06:35:45;14.57;;;13.17;;
10315;SDS011;5203;48.976;8.306;2023-05-16T06:38:12;14.83;;;13.33;;
10315;SDS011;5203;48.976;8.306;2023-05-16T06:40:39;14.10;;;11.83;;
10315;SDS011;5203;48.976;8.306;2023-05-16T06:43:05;13.23;;;11.93;;
10315;SDS011;5203;48.976;8.306;2023-05-16T06:45:30;13.60;;;12.00;;
10315;SDS011;5203;48.976;8.306;2023-05-16T06:47:56;11.47;;;10.27;;
10315;SDS011;5203;48.976;8.306;2023-05-16T06:50:22;11.37;;;10.27;;
10315;SDS011;5203;48.976;8.306;2023-05-16T06:52:48;10.37;;;9.27;;
10315;SDS011;5203;48.976;8.306;2023-05-16T06:55:13;10.37;;;8.50;;
10315;SDS011;5203;48.976;8.306;2023-05-16T06:57:39;9.70;;;8.13;;
10315;SDS011;5203;48.976;8.306;2023-05-16T07:00:05;9.17;;;7.17;;
10315;SDS011;5203;48.976;8.306;2023-05-16T07:02:32;6.90;;;6.27;;
10315;SDS011;5203;48.976;8.306;2023-05-16T07:04:58;6.60;;;6.00;;
10315;SDS011;5203;48.976;8.306;2023-05-16T07:07:23;5.77;;;5.20;;
10315;SDS011;5203;48.976;8.306;2023-05-16T07:09:49;5.47;;;4.97;;
10315;SDS011;5203;48.976;8.306;2023-05-16T07:12:14;5.90;;;5.27;;
10315;SDS011;5203;48.976;8.306;2023-05-16T07:14:40;5.33;;;4.83;;
10315;SDS011;5203;48.976;8.306;2023-05-16T07:17:07;5.70;;;4.80;;
10315;SDS011;5203;48.976;8.306;2023-05-16T07:19:33;5.60;;;4.60;;
10315;SDS011;5203;48.976;8.306;2023-05-16T07:21:59;4.80;;;4.40;;
10315;SDS011;5203;48.976;8.306;2023-05-16T07:24:24;15.60;;;14.40;;
10315;SDS011;5203;48.976;8.306;2023-05-16T07:26:50;10.50;;;9.70;;
10315;SDS011;5203;48.976;8.306;2023-05-16T07:29:16;62.63;;;57.80;;
10315;SDS011;5203;48.976;8.306;2023-05-16T07:31:41;17.53;;;16.33;;
10315;SDS011;5203;48.976;8.306;2023-05-16T07:34:08;6.30;;;5.80;;
10315;SDS011;5203;48.976;8.306;2023-05-16T07:36:34;4.13;;;3.83;;
10315;SDS011;5203;48.976;8.306;2023-05-16T07:39:00;3.40;;;3.20;;
10315;SDS011;5203;48.976;8.306;2023-05-16T07:41:26;2.63;;;2.43;;
10315;SDS011;5203;48.976;8.306;2023-05-16T07:43:51;2.80;;;2.60;;
10315;SDS011;5203;48.976;8.306;2023-05-16T07:46:17;3.00;;;2.70;;
10315;SDS011;5203;48.976;8.306;2023-05-16T07:48:42;2.60;;;2.40;;
10315;SDS011;5203;48.976;8.306;2023-05-16T07:51:08;4.90;;;2.50;;
10315;SDS011;5203;48.976;8.306;2023-05-16T07:53:34;2.60;;;2.40;;
10315;SDS011;5203;48.976;8.306;2023-05-16T07:55:59;2.17;;;2.07;;
10315;SDS011;5203;48.976;8.306;2023-05-16T07:58:25;2.47;;;2.27;;
10315;SDS011;5203;48.976;8.306;2023-05-16T08:00:52;2.50;;;2.30;;
10315;SDS011;5203;48.976;8.306;2023-05-16T08:03:18;2.67;;;2.47;;
10315;SDS011;5203;48.976;8.306;2023-05-16T08:05:43;3.93;;;2.30;;
10315;SDS011;5203;48.976;8.306;2023-05-16T08:08:09;2.30;;;2.10;;
10315;SDS011;5203;48.976;8.306;2023-05-16T08:10:35;2.43;;;2.23;;
10315;SDS011;5203;48.976;8.306;2023-05-16T08:13:00;2.37;;;1.97;;
10315;SDS011;5203;48.976;8.306;2023-05-16T08:15:26;1.93;;;1.83;;
10315;SDS011;5203;48.976;8.306;2023-05-16T08:17:55;2.10;;;2.00;;
10315;SDS011;5203;48.976;8.306;2023-05-16T08:20:24;2.10;;;2.00;;
10315;SDS011;5203;48.976;8.306;2023-05-16T08:22:50;2.37;;;2.20;;
10315;SDS011;5203;48.976;8.306;2023-05-16T08:25:16;2.00;;;1.90;;
10315;SDS011;5203;48.976;8.306;2023-05-16T08:27:43;1.90;;;1.80;;
10315;SDS011;5203;48.976;8.306;2023-05-16T08:30:10;2.33;;;2.10;;
10315;SDS011;5203;48.976;8.306;2023-05-16T08:32:36;2.10;;;2.00;;
10315;SDS011;5203;48.976;8.306;2023-05-16T08:35:02;2.10;;;2.00;;
10315;SDS011;5203;48.976;8.306;2023-05-16T08:37:27;2.27;;;2.07;;
10315;SDS011;5203;48.976;8.306;2023-05-16T08:39:53;2.10;;;2.00;;
10315;SDS011;5203;48.976;8.306;2023-05-16T08:42:19;3.43;;;1.80;;
10315;SDS011;5203;48.976;8.306;2023-05-16T08:44:44;2.63;;;2.30;;
10315;SDS011;5203;48.976;8.306;2023-05-16T08:47:12;1.90;;;1.80;;
10315;SDS011;5203;48.976;8.306;2023-05-16T08:49:42;2.13;;;2.03;;
10315;SDS011;5203;48.976;8.306;2023-05-16T08:52:11;2.43;;;2.27;;
10315;SDS011;5203;48.976;8.306;2023-05-16T08:54:38;2.27;;;2.17;;
10315;SDS011;5203;48.976;8.306;2023-05-16T08:57:05;2.57;;;2.40;;
10315;SDS011;5203;48.976;8.306;2023-05-16T08:59:32;2.60;;;2.40;;
10315;SDS011;5203;48.976;8.306;2023-05-16T09:01:59;5.00;;;2.30;;
10315;SDS011;5203;48.976;8.306;2023-05-16T09:04:25;2.40;;;2.30;;
10315;SDS011;5203;48.976;8.306;2023-05-16T09:06:51;2.40;;;2.20;;
10315;SDS011;5203;48.976;8.306;2023-05-16T09:09:17;2.57;;;2.37;;
10315;SDS011;5203;48.976;8.306;2023-05-16T09:11:43;2.83;;;2.40;;
10315;SDS011;5203;48.976;8.306;2023-05-16T09:14:09;2.33;;;2.13;;
10315;SDS011;5203;48.976;8.306;2023-05-16T09:16:36;3.33;;;2.60;;
10315;SDS011;5203;48.976;8.306;2023-05-16T09:19:02;2.67;;;2.47;;
10315;SDS011;5203;48.976;8.306;2023-05-16T09:21:29;2.40;;;2.30;;
10315;SDS011;5203;48.976;8.306;2023-05-16T09:24:05;2.63;;;2.17;;
10315;SDS011;5203;48.976;8.306;2023-05-16T09:26:33;2.53;;;2.40;;
10315;SDS011;5203;48.976;8.306;2023-05-16T09:29:00;2.73;;;2.53;;
10315;SDS011;5203;48.976;8.306;2023-05-16T09:31:27;2.30;;;2.10;;
10315;SDS011;5203;48.976;8.306;2023-05-16T09:34:02;2.43;;;2.33;;
10315;SDS011;5203;48.976;8.306;2023-05-16T09:36:32;2.23;;;2.10;;
10315;SDS011;5203;48.976;8.306;2023-05-16T09:38:57;2.00;;;1.90;;
10315;SDS011;5203;48.976;8.306;2023-05-16T09:41:24;4.53;;;2.10;;
10315;SDS011;5203;48.976;8.306;2023-05-16T09:43:50;2.53;;;2.33;;
10315;SDS011;5203;48.976;8.306;2023-05-16T09:46:15;2.30;;;2.10;;
10315;SDS011;5203;48.976;8.306;2023-05-16T09:48:43;2.20;;;2.00;;
10315;SDS011;5203;48.976;8.306;2023-05-16T09:51:12;13.43;;;3.30;;
10315;SDS011;5203;48.976;8.306;2023-05-16T09:53:39;2.23;;;2.03;;
10315;SDS011;5203;48.976;8.306;2023-05-16T09:56:07;2.07;;;1.97;;
10315;SDS011;5203;48.976;8.306;2023-05-16T09:58:37;2.27;;;2.07;;
10315;SDS011;5203;48.976;8.306;2023-05-16T10:01:04;2.00;;;1.90;;
10315;SDS011;5203;48.976;8.306;2023-05-16T10:03:35;1.90;;;1.80;;
10315;SDS011;5203;48.976;8.306;2023-05-16T10:06:05;2.73;;;2.00;;
10315;SDS011;5203;48.976;8.306;2023-05-16T10:08:32;2.30;;;2.10;;
10315;SDS011;5203;48.976;8.306;2023-05-16T10:11:00;2.07;;;1.97;;
10315;SDS011;5203;48.976;8.306;2023-05-16T10:13:28;1.90;;;1.80;;
10315;SDS011;5203;48.976;8.306;2023-05-16T10:15:55;1.83;;;1.73;;
10315;SDS011;5203;48.976;8.306;2023-05-16T10:18:23;1.93;;;1.70;;
10315;SDS011;5203;48.976;8.306;2023-05-16T10:20:56;3.80;;;1.90;;
10315;SDS011;5203;48.976;8.306;2023-05-16T10:23:34;3.83;;;2.20;;
10315;SDS011;5203;48.976;8.306;2023-05-16T10:26:02;1.90;;;1.80;;
10315;SDS011;5203;48.976;8.306;2023-05-16T10:28:30;2.07;;;1.97;;
10315;SDS011;5203;48.976;8.306;2023-05-16T10:30:56;1.90;;;1.80;;
10315;SDS011;5203;48.976;8.306;2023-05-16T10:33:23;3.37;;;2.00;;
10315;SDS011;5203;48.976;8.306;2023-05-16T10:35:48;2.07;;;1.87;;
10315;SDS011;5203;48.976;8.306;2023-05-16T10:38:15;3.30;;;1.90;;
10315;SDS011;5203;48.976;8.306;2023-05-16T10:40:42;2.30;;;1.80;;
10315;SDS011;5203;48.976;8.306;2023-05-16T10:43:09;3.53;;;1.90;;
10315;SDS011;5203;48.976;8.306;2023-05-16T10:45:41;1.90;;;1.80;;
10315;SDS011;5203;48.976;8.306;2023-05-16T10:48:07;2.63;;;1.70;;
10315;SDS011;5203;48.976;8.306;2023-05-16T10:53:13;5.77;;;2.70;;
10315;SDS011;5203;48.976;8.306;2023-05-16T10:55:39;3.23;;;1.97;;
10315;SDS011;5203;48.976;8.306;2023-05-16T10:58:08;3.27;;;2.00;;
10315;SDS011;5203;48.976;8.306;2023-05-16T11:00:34;5.67;;;1.87;;
10315;SDS011;5203;48.976;8.306;2023-05-16T11:03:18;1.80;;;1.70;;
10315;SDS011;5203;48.976;8.306;2023-05-16T11:05:51;1.63;;;1.53;;
10315;SDS011;5203;48.976;8.306;2023-05-16T11:08:18;1.70;;;1.60;;
10315;SDS011;5203;48.976;8.306;2023-05-16T11:10:44;1.80;;;1.70;;
10315;SDS011;5203;48.976;8.306;2023-05-16T11:13:10;3.80;;;1.87;;
10315;SDS011;5203;48.976;8.306;2023-05-16T11:15:35;1.90;;;1.80;;
10315;SDS011;5203;48.976;8.306;2023-05-16T11:18:05;1.83;;;1.73;;
10315;SDS011;5203;48.976;8.306;2023-05-16T11:20:38;2.10;;;2.00;;
10315;SDS011;5203;48.976;8.306;2023-05-16T11:23:17;1.97;;;1.83;;
10315;SDS011;5203;48.976;8.306;2023-05-16T11:25:45;3.23;;;1.80;;
10315;SDS011;5203;48.976;8.306;2023-05-16T11:28:25;2.63;;;1.80;;
10315;SDS011;5203;48.976;8.306;2023-05-16T11:30:52;3.23;;;1.67;;
10315;SDS011;5203;48.976;8.306;2023-05-16T11:33:22;4.63;;;1.70;;
10315;SDS011;5203;48.976;8.306;2023-05-16T11:36:07;2.37;;;1.60;;
10315;SDS011;5203;48.976;8.306;2023-05-16T11:38:33;2.83;;;1.80;;
10315;SDS011;5203;48.976;8.306;2023-05-16T11:41:03;2.10;;;1.90;;
10315;SDS011;5203;48.976;8.306;2023-05-16T11:43:51;5.17;;;1.87;;
10315;SDS011;5203;48.976;8.306;2023-05-16T11:46:16;4.70;;;1.83;;
10315;SDS011;5203;48.976;8.306;2023-05-16T11:48:41;4.37;;;2.43;;
10315;SDS011;5203;48.976;8.306;2023-05-16T11:51:09;2.00;;;1.53;;
10315;SDS011;5203;48.976;8.306;2023-05-16T11:53:35;2.10;;;1.77;;
10315;SDS011;5203;48.976;8.306;2023-05-16T11:56:02;1.73;;;1.63;;
10315;SDS011;5203;48.976;8.306;2023-05-16T11:58:28;1.83;;;1.73;;
10315;SDS011;5203;48.976;8.306;2023-05-16T12:00:53;1.90;;;1.80;;
10315;SDS011;5203;48.976;8.306;2023-05-16T12:03:19;1.73;;;1.67;;
10315;SDS011;5203;48.976;8.306;2023-05-16T12:05:51;2.10;;;1.90;;
10315;SDS011;5203;48.976;8.306;2023-05-16T12:08:19;2.00;;;1.80;;
10315;SDS011;5203;48.976;8.306;2023-05-16T12:10:46;3.60;;;2.00;;
10315;SDS011;5203;48.976;8.306;2023-05-16T12:13:14;2.60;;;1.93;;
10315;SDS011;5203;48.976;8.306;2023-05-16T12:15:41;1.83;;;1.73;;
10315;SDS011;5203;48.976;8.306;2023-05-16T12:18:07;2.23;;;2.03;;
10315;SDS011;5203;48.976;8.306;2023-05-16T12:20:34;3.33;;;2.00;;
10315;SDS011;5203;48.976;8.306;2023-05-16T12:22:59;2.07;;;1.97;;
10315;SDS011;5203;48.976;8.306;2023-05-16T12:27:56;2.00;;;1.87;;
10315;SDS011;5203;48.976;8.306;2023-05-16T12:30:23;2.53;;;2.10;;
10315;SDS011;5203;48.976;8.306;2023-05-16T12:35:23;2.50;;;2.30;;
10315;SDS011;5203;48.976;8.306;2023-05-16T12:37:58;3.63;;;2.77;;
10315;SDS011;5203;48.976;8.306;2023-05-16T12:40:27;4.93;;;2.80;;
10315;SDS011;5203;48.976;8.306;2023-05-16T12:42:54;2.83;;;2.60;;
10315;SDS011;5203;48.976;8.306;2023-05-16T12:45:22;3.47;;;3.17;;
10315;SDS011;5203;48.976;8.306;2023-05-16T12:47:51;4.30;;;3.10;;
10315;SDS011;5203;48.976;8.306;2023-05-16T12:50:16;12.10;;;5.67;;
10315;SDS011;5203;48.976;8.306;2023-05-16T12:52:52;6.07;;;4.43;;
10315;SDS011;5203;48.976;8.306;2023-05-16T12:55:20;5.90;;;4.67;;
10315;SDS011;5203;48.976;8.306;2023-05-16T12:57:46;6.53;;;4.20;;
10315;SDS011;5203;48.976;8.306;2023-05-16T13:00:13;6.13;;;4.50;;
10315;SDS011;5203;48.976;8.306;2023-05-16T13:02:40;5.53;;;3.93;;
10315;SDS011;5203;48.976;8.306;2023-05-16T13:05:06;7.13;;;3.70;;
10315;SDS011;5203;48.976;8.306;2023-05-16T13:07:32;6.67;;;4.47;;
10315;SDS011;5203;48.976;8.306;2023-05-16T13:09:58;7.63;;;4.10;;
10315;SDS011;5203;48.976;8.306;2023-05-16T13:12:24;8.13;;;5.90;;
10315;SDS011;5203;48.976;8.306;2023-05-16T13:14:54;8.07;;;7.27;;
10315;SDS011;5203;48.976;8.306;2023-05-16T13:17:20;5.40;;;4.17;;
10315;SDS011;5203;48.976;8.306;2023-05-16T13:19:47;5.27;;;3.20;;
10315;SDS011;5203;48.976;8.306;2023-05-16T13:22:14;3.67;;;3.10;;
10315;SDS011;5203;48.976;8.306;2023-05-16T13:24:39;6.70;;;3.70;;
10315;SDS011;5203;48.976;8.306;2023-05-16T13:27:05;8.40;;;4.60;;
10315;SDS011;5203;48.976;8.306;2023-05-16T13:29:31;4.67;;;3.33;;
10315;SDS011;5203;48.976;8.306;2023-05-16T13:31:56;5.97;;;3.47;;
10315;SDS011;5203;48.976;8.306;2023-05-16T13:34:22;7.80;;;5.37;;
10315;SDS011;5203;48.976;8.306;2023-05-16T13:36:48;4.87;;;3.10;;
10315;SDS011;5203;48.976;8.306;2023-05-16T13:39:13;7.17;;;3.27;;
10315;SDS011;5203;48.976;8.306;2023-05-16T13:41:41;7.93;;;3.20;;
10315;SDS011;5203;48.976;8.306;2023-05-16T13:44:07;6.13;;;3.60;;
10315;SDS011;5203;48.976;8.306;2023-05-16T13:46:33;7.43;;;3.20;;
10315;SDS011;5203;48.976;8.306;2023-05-16T13:48:59;3.37;;;3.07;;
10315;SDS011;5203;48.976;8.306;2023-05-16T13:51:25;6.37;;;3.33;;
10315;SDS011;5203;48.976;8.306;2023-05-16T13:53:51;8.50;;;3.77;;
10315;SDS011;5203;48.976;8.306;2023-05-16T13:56:16;6.20;;;3.63;;
10315;SDS011;5203;48.976;8.306;2023-05-16T13:58:42;4.50;;;3.13;;
10315;SDS011;5203;48.976;8.306;2023-05-16T14:01:07;7.10;;;3.23;;
10315;SDS011;5203;48.976;8.306;2023-05-16T14:03:33;3.97;;;2.67;;
10315;SDS011;5203;48.976;8.306;2023-05-16T14:06:00;6.50;;;3.23;;
10315;SDS011;5203;48.976;8.306;2023-05-16T14:08:26;5.23;;;3.03;;
10315;SDS011;5203;48.976;8.306;2023-05-16T14:10:53;9.97;;;3.53;;
10315;SDS011;5203;48.976;8.306;2023-05-16T14:13:19;6.03;;;3.30;;
10315;SDS011;5203;48.976;8.306;2023-05-16T14:15:45;11.57;;;3.77;;
10315;SDS011;5203;48.976;8.306;2023-05-16T14:18:11;20.73;;;4.47;;
10315;SDS011;5203;48.976;8.306;2023-05-16T14:20:37;7.53;;;3.23;;
10315;SDS011;5203;48.976;8.306;2023-05-16T14:23:03;4.90;;;2.67;;
10315;SDS011;5203;48.976;8.306;2023-05-16T14:25:29;4.73;;;3.17;;
10315;SDS011;5203;48.976;8.306;2023-05-16T14:27:54;4.50;;;2.60;;
10315;SDS011;5203;48.976;8.306;2023-05-16T14:30:20;3.03;;;2.80;;
10315;SDS011;5203;48.976;8.306;2023-05-16T14:32:46;3.20;;;2.83;;
10315;SDS011;5203;48.976;8.306;2023-05-16T14:35:12;5.73;;;3.27;;
10315;SDS011;5203;48.976;8.306;2023-05-16T14:37:38;4.87;;;3.03;;
10315;SDS011;5203;48.976;8.306;2023-05-16T14:40:04;2.97;;;2.63;;
10315;SDS011;5203;48.976;8.306;2023-05-16T14:42:30;5.90;;;2.90;;
10315;SDS011;5203;48.976;8.306;2023-05-16T14:44:56;5.27;;;2.97;;
10315;SDS011;5203;48.976;8.306;2023-05-16T14:47:22;3.80;;;2.80;;
10315;SDS011;5203;48.976;8.306;2023-05-16T14:49:48;6.33;;;3.00;;
10315;SDS011;5203;48.976;8.306;2023-05-16T14:52:13;4.07;;;2.73;;
10315;SDS011;5203;48.976;8.306;2023-05-16T14:54:39;4.47;;;2.70;;
10315;SDS011;5203;48.976;8.306;2023-05-16T14:57:05;4.17;;;3.07;;
10315;SDS011;5203;48.976;8.306;2023-05-16T14:59:31;6.03;;;4.20;;
10315;SDS011;5203;48.976;8.306;2023-05-16T15:01:57;34.07;;;27.30;;
10315;SDS011;5203;48.976;8.306;2023-05-16T15:04:23;8.80;;;4.60;;
10315;SDS011;5203;48.976;8.306;2023-05-16T15:06:49;6.00;;;4.30;;